createdAt,value
2022-08-01T00:00:09.882Z,101869.00
2022-08-01T00:02:40.509Z,101896.06
2022-08-01T00:05:08.852Z,101905.75
2022-08-01T00:07:36.630Z,101900.63
2022-08-01T00:10:12.085Z,101896.25
2022-08-01T00:12:38.796Z,101903.25
2022-08-01T00:15:06.592Z,101897.22
2022-08-01T00:17:33.350Z,101892.00
2022-08-01T00:19:59.889Z,101892.94
2022-08-01T00:22:26.646Z,101894.78
2022-08-01T00:24:53.188Z,101899.16
2022-08-01T00:27:19.760Z,101907.03
2022-08-01T00:30:09.609Z,101908.78
2022-08-01T00:32:33.400Z,101907.91
2022-08-01T00:35:00.011Z,101902.69
2022-08-01T00:37:26.923Z,101916.59
2022-08-01T00:39:53.606Z,101905.28
2022-08-01T00:42:20.214Z,101904.25
2022-08-01T00:44:46.782Z,101904.19
2022-08-01T00:47:13.558Z,101903.25
2022-08-01T00:49:40.293Z,101906.66
2022-08-01T00:52:09.073Z,101907.50
2022-08-01T00:54:36.641Z,101904.81
2022-08-01T00:57:03.798Z,101894.41
2022-08-01T00:59:31.264Z,101909.16
2022-08-01T01:01:58.730Z,101900.34
2022-08-01T01:04:25.710Z,101899.47
2022-08-01T01:07:16.266Z,101904.72
2022-08-01T01:10:01.595Z,101837.06
2022-08-01T01:12:38.945Z,101897.69
2022-08-01T01:15:23.042Z,101903.81
2022-08-01T01:17:56.499Z,101888.19
2022-08-01T01:20:28.361Z,101853.47
2022-08-01T01:23:23.014Z,101839.69
2022-08-01T01:26:04.797Z,101900.22
2022-08-01T01:29:09.672Z,101902.03
2022-08-01T01:31:56.573Z,101890.72
2022-08-01T01:34:24.645Z,101902.88
2022-08-01T01:36:54.904Z,101906.34
2022-08-01T01:39:23.623Z,101906.34
2022-08-01T01:41:51.511Z,101882.91
2022-08-01T01:44:19.195Z,101909.91
2022-08-01T01:46:46.869Z,101917.78
2022-08-01T01:49:13.739Z,101910.81
2022-08-01T01:51:42.809Z,101906.44
2022-08-01T01:54:22.886Z,101904.69
2022-08-01T01:56:51.710Z,101844.03
2022-08-01T01:59:25.875Z,101908.13
2022-08-01T02:01:58.507Z,101891.69
2022-08-01T02:04:35.818Z,101907.28
2022-08-01T02:07:02.968Z,101899.47
2022-08-01T02:09:30.927Z,101910.63
2022-08-01T02:12:09.492Z,101907.13
2022-08-01T02:14:37.204Z,101907.03
2022-08-01T02:17:04.354Z,101911.41
2022-08-01T02:19:31.665Z,101879.25
2022-08-01T02:22:02.902Z,101886.03
2022-08-01T02:24:41.665Z,101877.25
2022-08-01T02:27:16.669Z,101893.84
2022-08-01T02:29:48.001Z,101883.31
2022-08-01T02:32:20.457Z,101875.53
2022-08-01T02:34:50.177Z,101874.63
2022-08-01T02:37:17.849Z,101867.66
2022-08-01T02:39:48.121Z,101846.06
2022-08-01T02:42:16.510Z,101863.34
2022-08-01T02:44:45.976Z,101809.75
2022-08-01T02:47:13.377Z,101861.69
2022-08-01T02:49:53.276Z,101816.78
2022-08-01T02:52:23.876Z,101849.09
2022-08-01T02:54:54.127Z,101888.06
2022-08-01T02:57:22.478Z,101881.94
2022-08-01T02:59:51.201Z,101865.44
2022-08-01T03:02:19.875Z,101868.78
2022-08-01T03:04:48.185Z,101870.53
2022-08-01T03:07:16.836Z,101826.47
2022-08-01T03:09:45.668Z,101875.78
2022-08-01T03:12:26.765Z,101880.22
2022-08-01T03:14:56.600Z,101898.53
2022-08-01T03:17:27.633Z,101825.59
2022-08-01T03:19:58.473Z,101779.72
2022-08-01T03:22:28.365Z,101810.91
2022-08-01T03:24:56.891Z,101863.59
2022-08-01T03:27:25.285Z,101867.16
2022-08-01T03:29:55.499Z,101888.00
2022-08-01T03:32:22.964Z,101880.16
2022-08-01T03:34:49.924Z,101861.06
2022-08-01T03:37:27.749Z,101881.06
2022-08-01T03:40:30.874Z,101881.06
2022-08-01T03:43:03.480Z,101857.66
2022-08-01T03:45:39.468Z,101871.47
2022-08-01T03:48:16.904Z,101860.28
2022-08-01T03:50:47.696Z,101886.41
2022-08-01T03:53:15.650Z,101881.16
2022-08-01T03:55:44.508Z,101896.94
2022-08-01T03:58:12.568Z,101884.69
2022-08-01T04:00:39.613Z,101870.84
2022-08-01T04:03:08.900Z,101881.38
2022-08-01T04:05:35.817Z,101886.53
2022-08-01T04:08:02.761Z,101892.66
2022-08-01T04:10:30.324Z,101895.31
2022-08-01T04:12:56.909Z,101896.22
2022-08-01T04:15:23.461Z,101891.84
2022-08-01T04:17:50.109Z,101886.66
2022-08-01T04:20:16.742Z,101860.78
2022-08-01T04:22:43.263Z,101885.00
2022-08-01T04:25:35.896Z,101894.59
2022-08-01T04:28:04.674Z,101894.59
2022-08-01T04:30:34.767Z,101834.03
2022-08-01T04:33:03.361Z,101898.13
2022-08-01T04:36:03.212Z,101894.69
2022-08-01T04:38:24.430Z,101903.44
2022-08-01T04:40:53.170Z,101899.91
2022-08-01T04:43:19.862Z,101899.91
2022-08-01T04:45:48.091Z,101876.47
2022-08-01T04:48:17.560Z,101892.97
2022-08-01T04:50:44.115Z,101902.50
2022-08-01T04:53:19.144Z,101873.94
2022-08-01T04:55:47.216Z,101898.19
2022-08-01T04:58:18.434Z,101838.41
2022-08-01T05:00:48.989Z,101896.38
2022-08-01T05:03:15.738Z,101894.72
2022-08-01T05:05:42.298Z,101896.44
2022-08-01T05:08:08.811Z,101904.31
2022-08-01T05:10:35.504Z,101887.81
2022-08-01T05:13:03.179Z,101834.19
2022-08-01T05:15:29.726Z,101909.56
2022-08-01T05:17:56.259Z,101903.44
2022-08-01T05:20:22.809Z,101901.63
2022-08-01T05:22:49.463Z,101904.25
2022-08-01T05:25:20.297Z,101905.97
2022-08-01T05:27:47.359Z,101908.59
2022-08-01T05:30:15.706Z,101905.03
2022-08-01T05:32:42.617Z,101894.53
2022-08-01T05:35:09.704Z,101905.03
2022-08-01T05:37:36.343Z,101905.00
2022-08-01T05:40:03.700Z,101898.00
2022-08-01T05:42:30.705Z,101914.59
2022-08-01T05:44:57.230Z,101907.53
2022-08-01T05:47:23.796Z,101903.97
2022-08-01T05:49:50.697Z,101909.19
2022-08-01T05:52:17.330Z,101903.97
2022-08-01T05:54:43.865Z,101914.31
2022-08-01T05:57:11.234Z,101904.72
2022-08-01T05:59:38.991Z,101912.44
2022-08-01T06:02:05.855Z,101909.72
2022-08-01T06:04:32.621Z,101906.16
2022-08-01T06:06:59.195Z,101907.78
2022-08-01T06:09:25.769Z,101917.31
2022-08-01T06:11:52.371Z,101905.84
2022-08-01T06:14:18.892Z,101904.88
2022-08-01T06:16:45.481Z,101911.84
2022-08-01T06:19:12.032Z,101915.16
2022-08-01T06:21:38.634Z,101909.00
2022-08-01T06:24:05.552Z,101920.25
2022-08-01T06:26:32.193Z,101914.00
2022-08-01T06:28:58.836Z,101926.13
2022-08-01T06:31:26.918Z,101918.16
2022-08-01T06:33:56.100Z,101914.53
2022-08-01T06:36:22.777Z,101913.53
2022-08-01T06:38:49.399Z,101909.03
2022-08-01T06:41:16.051Z,101905.41
2022-08-01T06:43:42.625Z,101905.25
2022-08-01T06:46:09.432Z,101902.53
2022-08-01T06:48:36.049Z,101914.66
2022-08-01T06:51:02.564Z,101923.31
2022-08-01T06:53:31.625Z,101923.22
2022-08-01T06:56:01.874Z,101903.25
2022-08-01T06:58:30.679Z,101923.94
2022-08-01T07:00:58.622Z,101922.06
2022-08-01T07:03:44.527Z,101923.66
2022-08-01T07:06:13.575Z,101922.72
2022-08-01T07:08:41.879Z,101921.75
2022-08-01T07:11:08.800Z,101926.09
2022-08-01T07:13:43.773Z,101928.66
2022-08-01T07:16:15.903Z,101929.44
2022-08-01T07:18:42.661Z,101932.88
2022-08-01T07:21:16.563Z,101914.59
2022-08-01T07:23:55.827Z,101929.19
2022-08-01T07:26:22.579Z,101929.19
2022-08-01T07:28:49.151Z,101936.97
2022-08-01T07:31:15.823Z,101935.09
2022-08-01T07:33:48.616Z,101935.06
2022-08-01T07:36:19.198Z,101943.69
2022-08-01T07:38:46.562Z,101941.91
2022-08-01T07:41:13.096Z,101940.94
2022-08-01T07:43:40.588Z,101948.72
2022-08-01T07:46:07.341Z,101946.81
2022-08-01T07:48:34.625Z,101953.72
2022-08-01T07:51:01.336Z,101945.00
2022-08-01T07:53:27.974Z,101955.28
2022-08-01T07:55:54.484Z,101960.53
2022-08-01T07:58:21.017Z,101961.44
2022-08-01T08:00:47.518Z,101967.56
2022-08-01T08:03:14.094Z,101961.41
2022-08-01T08:05:58.245Z,101957.88
2022-08-01T08:08:27.446Z,101957.63
2022-08-01T08:10:54.416Z,101963.63
2022-08-01T08:13:21.337Z,101947.97
2022-08-01T08:15:48.707Z,101960.75
2022-08-01T08:18:15.924Z,101956.22
2022-08-01T08:20:42.504Z,101951.69
2022-08-01T08:23:09.085Z,101949.81
2022-08-01T08:25:35.579Z,101950.53
2022-08-01T08:28:02.116Z,101943.38
2022-08-01T08:30:28.649Z,101955.53
2022-08-01T08:32:55.175Z,101954.56
2022-08-01T08:35:40.416Z,101959.75
2022-08-01T08:38:08.647Z,101953.50
2022-08-01T08:40:38.427Z,101951.75
2022-08-01T08:43:06.527Z,101951.72
2022-08-01T08:45:59.083Z,101952.63
2022-08-01T08:48:21.487Z,101948.22
2022-08-01T08:50:56.173Z,101942.09
2022-08-01T08:53:23.538Z,101931.59
2022-08-01T08:55:55.710Z,101925.38
2022-08-01T08:58:30.561Z,101883.69
2022-08-01T09:00:59.905Z,101932.03
2022-08-01T09:03:26.618Z,101951.13
2022-08-01T09:05:53.194Z,101945.84
2022-08-01T09:08:19.698Z,101954.31
2022-08-01T09:10:46.256Z,101961.16
2022-08-01T09:13:14.872Z,101953.19
2022-08-01T09:15:45.999Z,101917.47
2022-08-01T09:18:32.157Z,101954.50
2022-08-01T09:21:10.617Z,101905.16
2022-08-01T09:23:54.224Z,101933.59
2022-08-01T09:26:41.503Z,101960.25
2022-08-01T09:29:17.510Z,101956.47
2022-08-01T09:32:06.876Z,101904.13
2022-08-01T09:34:33.607Z,101959.25
2022-08-01T09:37:03.695Z,101895.81
2022-08-01T09:39:35.510Z,101953.63
2022-08-01T09:42:18.765Z,101948.97
2022-08-01T09:44:55.124Z,101940.94
2022-08-01T09:47:23.393Z,101953.69
2022-08-01T09:49:56.586Z,101898.84
2022-08-01T09:52:28.804Z,101910.75
2022-08-01T09:54:58.510Z,101962.06
2022-08-01T09:57:25.636Z,101961.56
2022-08-01T09:59:59.014Z,101916.25
2022-08-01T10:02:29.622Z,101960.78
2022-08-01T10:05:03.413Z,101946.53
2022-08-01T10:07:43.627Z,101951.34
2022-08-01T10:10:13.023Z,101874.25
2022-08-01T10:12:45.149Z,101954.13
2022-08-01T10:15:12.594Z,101949.44
2022-08-01T10:17:50.287Z,101956.22
2022-08-01T10:20:30.416Z,101955.19
2022-08-01T10:23:05.754Z,101951.56
2022-08-01T10:25:41.911Z,101963.50
2022-08-01T10:28:23.946Z,101950.69
2022-08-01T10:30:52.098Z,101942.13
2022-08-01T10:33:52.417Z,101946.53
2022-08-01T10:36:10.722Z,101944.69
2022-08-01T10:38:37.701Z,101945.53
2022-08-01T10:41:06.502Z,101942.66
2022-08-01T10:43:33.537Z,101933.94
2022-08-01T10:46:04.424Z,101936.56
2022-08-01T10:48:43.976Z,101931.81
2022-08-01T10:51:17.998Z,101930.44
2022-08-01T10:53:53.976Z,101885.25
2022-08-01T10:56:22.414Z,101926.81
2022-08-01T10:59:06.564Z,101936.28
2022-08-01T11:01:44.815Z,101934.66
2022-08-01T11:04:17.388Z,101924.72
2022-08-01T11:06:50.729Z,101943.50
2022-08-01T11:09:37.443Z,101881.47
2022-08-01T11:12:23.407Z,101926.91
2022-08-01T11:15:17.183Z,101913.94
2022-08-01T11:17:56.078Z,101909.72
2022-08-01T11:20:28.010Z,101904.66
2022-08-01T11:23:00.404Z,101909.28
2022-08-01T11:26:05.226Z,101905.31
2022-08-01T11:28:36.626Z,101900.78
2022-08-01T11:31:03.427Z,101895.28
2022-08-01T11:33:46.062Z,101887.22
2022-08-01T11:36:14.909Z,101885.47
2022-08-01T11:38:58.556Z,101870.19
2022-08-01T11:41:38.491Z,101850.97
2022-08-01T11:44:10.171Z,101888.00
2022-08-01T11:47:00.967Z,101888.25
2022-08-01T11:49:34.843Z,101849.75
2022-08-01T11:52:12.085Z,101834.13
2022-08-01T11:54:41.335Z,101874.50
2022-08-01T11:57:33.959Z,101877.84
2022-08-01T12:00:08.665Z,101822.81
2022-08-01T12:02:41.387Z,101868.31
2022-08-01T12:05:12.125Z,101868.13
2022-08-01T12:07:40.025Z,101872.03
2022-08-01T12:10:11.986Z,101836.44
2022-08-01T12:13:03.129Z,101876.75
2022-08-01T12:15:35.795Z,101815.44
2022-08-01T12:18:04.603Z,101868.19
2022-08-01T12:20:34.294Z,101849.63
2022-08-01T12:23:07.038Z,101825.13
2022-08-01T12:25:34.382Z,101862.47
2022-08-01T12:28:06.008Z,101855.03
2022-08-01T12:30:34.615Z,101855.38
2022-08-01T12:33:01.272Z,101852.22
2022-08-01T12:35:30.214Z,101850.19
2022-08-01T12:37:59.854Z,101807.75
2022-08-01T12:40:29.485Z,101844.50
2022-08-01T12:43:07.380Z,101803.03
2022-08-01T12:45:40.735Z,101807.91
2022-08-01T12:48:21.837Z,101845.66
2022-08-01T12:50:50.644Z,101817.06
2022-08-01T12:53:17.503Z,101847.31
2022-08-01T12:55:58.194Z,101794.94
2022-08-01T12:58:32.619Z,101785.16
2022-08-01T13:01:11.158Z,101832.66
2022-08-01T13:03:38.657Z,101826.38
2022-08-01T13:06:17.173Z,101810.66
2022-08-01T13:08:45.546Z,101830.22
2022-08-01T13:11:14.355Z,101780.69
2022-08-01T13:13:43.565Z,101816.75
2022-08-01T13:16:12.461Z,101825.34
2022-08-01T13:18:50.267Z,101790.47
2022-08-01T13:21:19.279Z,101785.91
2022-08-01T13:24:09.885Z,101815.84
2022-08-01T13:26:50.592Z,101811.81
2022-08-01T13:29:18.203Z,101807.63
2022-08-01T13:31:45.200Z,101803.25
2022-08-01T13:34:11.873Z,101801.53
2022-08-01T13:36:38.766Z,101808.00
2022-08-01T13:39:06.241Z,101799.06
2022-08-01T13:41:35.065Z,101741.53
2022-08-01T13:44:01.594Z,101784.13
2022-08-01T13:46:29.546Z,101785.34
2022-08-01T13:48:56.328Z,101786.88
2022-08-01T13:51:22.923Z,101783.94
2022-08-01T13:53:49.745Z,101780.84
2022-08-01T13:56:16.281Z,101780.00
2022-08-01T13:58:42.837Z,101776.56
2022-08-01T14:01:09.474Z,101773.88
2022-08-01T14:03:36.119Z,101762.91
2022-08-01T14:06:03.359Z,101775.22
2022-08-01T14:08:29.916Z,101766.09
2022-08-01T14:10:57.670Z,101764.50
2022-08-01T14:13:24.551Z,101776.66
2022-08-01T14:15:57.039Z,101774.75
2022-08-01T14:18:23.566Z,101775.25
2022-08-01T14:20:53.867Z,101776.16
2022-08-01T14:23:25.894Z,101765.38
2022-08-01T14:26:03.570Z,101749.88
2022-08-01T14:28:32.383Z,101748.84
2022-08-01T14:30:59.371Z,101746.91
2022-08-01T14:33:26.585Z,101746.38
2022-08-01T14:36:05.853Z,101748.84
2022-08-01T14:38:40.080Z,101743.94
2022-08-01T14:41:06.592Z,101738.28
2022-08-01T14:43:33.944Z,101732.69
2022-08-01T14:46:04.161Z,101727.81
2022-08-01T14:48:30.936Z,101724.47
2022-08-01T14:50:58.323Z,101717.47
2022-08-01T14:53:24.900Z,101705.00
2022-08-01T14:55:51.445Z,101713.38
2022-08-01T14:58:17.987Z,101710.59
2022-08-01T15:00:44.551Z,101713.16
2022-08-01T15:03:11.132Z,101702.94
2022-08-01T15:05:37.703Z,101697.34
2022-08-01T15:08:05.140Z,101696.97
2022-08-01T15:10:31.704Z,101695.44
2022-08-01T15:12:58.552Z,101695.78
2022-08-01T15:15:25.044Z,101700.38
2022-08-01T15:17:51.614Z,101687.69
2022-08-01T15:20:18.103Z,101699.25
2022-08-01T15:22:45.150Z,101697.16
2022-08-01T15:25:11.763Z,101689.28
2022-08-01T15:27:38.337Z,101693.22
2022-08-01T15:30:05.439Z,101687.16
2022-08-01T15:32:31.992Z,101689.03
2022-08-01T15:34:58.581Z,101684.63
2022-08-01T15:37:25.175Z,101688.31
2022-08-01T15:39:54.719Z,101676.38
2022-08-01T15:42:25.398Z,101683.16
2022-08-01T15:44:53.186Z,101671.75
2022-08-01T15:47:19.700Z,101668.84
2022-08-01T15:49:46.299Z,101666.31
2022-08-01T15:52:21.987Z,101668.91
2022-08-01T15:54:49.776Z,101673.06
2022-08-01T15:57:16.590Z,101663.38
2022-08-01T15:59:43.192Z,101660.81
2022-08-01T16:02:10.311Z,101652.13
2022-08-01T16:04:38.853Z,101651.84
2022-08-01T16:07:06.176Z,101652.47
2022-08-01T16:09:32.824Z,101653.59
2022-08-01T16:11:59.353Z,101651.59
2022-08-01T16:14:25.932Z,101655.44
2022-08-01T16:16:55.045Z,101657.50
2022-08-01T16:19:21.663Z,101642.94
2022-08-01T16:21:48.465Z,101643.97
2022-08-01T16:24:15.062Z,101644.06
2022-08-01T16:26:41.791Z,101636.81
2022-08-01T16:29:08.383Z,101640.41
2022-08-01T16:31:37.085Z,101633.06
2022-08-01T16:34:10.403Z,101638.34
2022-08-01T16:36:40.409Z,101637.22
2022-08-01T16:39:06.911Z,101632.16
2022-08-01T16:41:37.623Z,101634.56
2022-08-01T16:44:04.522Z,101630.81
2022-08-01T16:46:33.067Z,101634.31
2022-08-01T16:48:59.675Z,101638.56
2022-08-01T16:51:26.227Z,101632.47
2022-08-01T16:53:53.195Z,101630.72
2022-08-01T16:56:20.649Z,101630.31
2022-08-01T16:58:47.217Z,101629.03
2022-08-01T17:01:57.828Z,101622.53
2022-08-01T17:04:01.477Z,101621.78
2022-08-01T17:06:29.548Z,101623.50
2022-08-01T17:08:56.184Z,101615.44
2022-08-01T17:11:22.740Z,101620.88
2022-08-01T17:13:49.405Z,101614.34
2022-08-01T17:16:16.070Z,101615.25
2022-08-01T17:18:42.711Z,101608.34
2022-08-01T17:21:09.226Z,101611.78
2022-08-01T17:23:35.820Z,101620.06
2022-08-01T17:26:02.582Z,101623.09
2022-08-01T17:28:29.203Z,101614.66
2022-08-01T17:30:55.868Z,101613.41
2022-08-01T17:33:22.476Z,101607.78
2022-08-01T17:35:48.994Z,101617.25
2022-08-01T17:38:15.952Z,101608.00
2022-08-01T17:40:43.872Z,101623.66
2022-08-01T17:43:10.488Z,101613.38
2022-08-01T17:45:48.864Z,101612.13
2022-08-01T17:48:17.670Z,101606.28
2022-08-01T17:50:45.221Z,101604.31
2022-08-01T17:53:12.263Z,101601.03
2022-08-01T17:55:55.421Z,101614.09
2022-08-01T17:58:49.739Z,101608.63
2022-08-01T18:01:15.229Z,101599.75
2022-08-01T18:03:42.199Z,101567.94
2022-08-01T18:06:09.759Z,101590.81
2022-08-01T18:08:36.412Z,101585.13
2022-08-01T18:11:03.098Z,101587.34
2022-08-01T18:13:29.917Z,101592.25
2022-08-01T18:15:57.086Z,101597.16
2022-08-01T18:18:33.729Z,101595.75
2022-08-01T18:21:04.346Z,101592.53
2022-08-01T18:23:31.390Z,101596.38
2022-08-01T18:25:57.899Z,101591.38
2022-08-01T18:28:31.393Z,101598.16
2022-08-01T18:31:02.060Z,101596.22
2022-08-01T18:33:28.622Z,101591.22
2022-08-01T18:35:55.134Z,101600.38
2022-08-01T18:38:27.341Z,101591.38
2022-08-01T18:40:53.851Z,101596.81
2022-08-01T18:43:20.669Z,101587.47
2022-08-01T18:45:47.205Z,101595.13
2022-08-01T18:48:13.775Z,101591.91
2022-08-01T18:50:40.317Z,101586.22
2022-08-01T18:53:06.907Z,101583.91
2022-08-01T18:55:33.459Z,101591.34
2022-08-01T18:58:00.049Z,101589.06
2022-08-01T19:00:26.582Z,101595.63
2022-08-01T19:02:53.138Z,101589.75
2022-08-01T19:05:19.796Z,101591.84
2022-08-01T19:08:05.954Z,101598.28
2022-08-01T19:10:33.202Z,101595.16
2022-08-01T19:12:59.712Z,101599.16
2022-08-01T19:15:26.277Z,101598.00
2022-08-01T19:17:52.796Z,101593.50
2022-08-01T19:20:19.664Z,101580.16
2022-08-01T19:22:46.183Z,101600.59
2022-08-01T19:25:14.921Z,101560.31
2022-08-01T19:27:46.872Z,101600.63
2022-08-01T19:30:14.345Z,101598.09
2022-08-01T19:32:44.322Z,101550.94
2022-08-01T19:35:13.131Z,101610.53
2022-08-01T19:37:41.440Z,101618.88
2022-08-01T19:40:08.463Z,101607.78
2022-08-01T19:42:40.336Z,101618.00
2022-08-01T19:45:07.947Z,101620.38
2022-08-01T19:47:56.012Z,101611.97
2022-08-01T19:50:21.139Z,101616.94
2022-08-01T19:52:51.535Z,101552.19
2022-08-01T19:55:18.892Z,101621.44
2022-08-01T19:57:59.355Z,101560.94
2022-08-01T20:00:37.306Z,101614.34
2022-08-01T20:03:04.839Z,101613.00
2022-08-01T20:05:31.450Z,101610.72
2022-08-01T20:07:58.541Z,101614.56
2022-08-01T20:10:25.083Z,101612.22
2022-08-01T20:12:52.536Z,101606.00
2022-08-01T20:15:19.511Z,101621.78
2022-08-01T20:17:46.105Z,101621.13
2022-08-01T20:20:12.668Z,101620.69
2022-08-01T20:22:40.897Z,101626.13
2022-08-01T20:25:09.201Z,101578.47
2022-08-01T20:27:37.858Z,101624.06
2022-08-01T20:30:06.329Z,101613.91
2022-08-01T20:32:37.260Z,101564.47
2022-08-01T20:35:04.442Z,101631.78
2022-08-01T20:38:04.171Z,101578.13
2022-08-01T20:40:25.049Z,101638.38
2022-08-01T20:42:53.572Z,101636.81
2022-08-01T20:45:21.863Z,101607.75
2022-08-01T20:47:49.683Z,101608.03
2022-08-01T20:50:50.681Z,101577.19
2022-08-01T20:53:06.007Z,101641.91
2022-08-01T20:55:42.681Z,101585.22
2022-08-01T20:58:10.760Z,101639.72
2022-08-01T21:00:39.033Z,101639.84
2022-08-01T21:03:16.146Z,101654.19
2022-08-01T21:05:55.820Z,101647.16
2022-08-01T21:08:44.567Z,101623.97
2022-08-01T21:11:19.547Z,101624.16
2022-08-01T21:13:46.505Z,101639.56
2022-08-01T21:16:23.556Z,101629.16
2022-08-01T21:19:21.851Z,101628.66
2022-08-01T21:21:56.871Z,101641.72
2022-08-01T21:24:34.040Z,101633.81
2022-08-01T21:27:02.230Z,101570.88
2022-08-01T21:29:28.960Z,101622.41
2022-08-01T21:31:55.856Z,101629.44
2022-08-01T21:34:24.904Z,101626.94
2022-08-01T21:36:51.461Z,101625.03
2022-08-01T21:39:18.156Z,101623.41
2022-08-01T21:42:03.375Z,101630.44
2022-08-01T21:44:33.784Z,101621.13
2022-08-01T21:47:01.222Z,101621.13
2022-08-01T21:49:27.929Z,101631.50
2022-08-01T21:52:00.249Z,101578.28
2022-08-01T21:54:39.609Z,101622.03
2022-08-01T21:57:24.104Z,101618.53
2022-08-01T22:00:11.422Z,101622.13
2022-08-01T22:03:12.140Z,101613.44
2022-08-01T22:05:50.241Z,101611.88
2022-08-01T22:08:26.981Z,101557.16
2022-08-01T22:10:58.982Z,101578.84
2022-08-01T22:13:25.646Z,101624.19
2022-08-01T22:15:56.426Z,101566.47
2022-08-01T22:18:25.470Z,101604.06
2022-08-01T22:20:52.985Z,101617.31
2022-08-01T22:23:21.476Z,101613.03
2022-08-01T22:25:54.579Z,101619.31
2022-08-01T22:28:22.638Z,101609.72
2022-08-01T22:30:51.303Z,101569.72
2022-08-01T22:33:18.906Z,101628.31
2022-08-01T22:35:48.551Z,101606.72
2022-08-01T22:38:17.950Z,101557.44
2022-08-01T22:40:49.133Z,101568.03
2022-08-01T22:43:38.418Z,101553.44
2022-08-01T22:46:15.217Z,101604.19
2022-08-01T22:48:52.404Z,101604.25
2022-08-01T22:51:54.880Z,101607.97
2022-08-01T22:54:28.963Z,101547.38
2022-08-01T22:56:57.122Z,101535.28
2022-08-01T22:59:43.044Z,101538.09
2022-08-01T23:02:14.589Z,101587.97
2022-08-01T23:04:49.362Z,101535.72
2022-08-01T23:07:22.809Z,101531.44
2022-08-01T23:09:54.277Z,101527.13
2022-08-01T23:12:24.602Z,101585.75
2022-08-01T23:14:57.847Z,101539.59
2022-08-01T23:17:28.940Z,101591.16
2022-08-01T23:20:01.615Z,101592.25
2022-08-01T23:22:31.232Z,101546.13
2022-08-01T23:25:05.566Z,101602.94
2022-08-01T23:27:54.199Z,101599.50
2022-08-01T23:30:27.925Z,101560.09
2022-08-01T23:32:54.926Z,101582.97
2022-08-01T23:35:21.489Z,101577.78
2022-08-01T23:37:48.096Z,101572.69
2022-08-01T23:40:14.668Z,101570.91
2022-08-01T23:42:41.259Z,101567.47
2022-08-01T23:45:08.224Z,101569.34
2022-08-01T23:47:34.796Z,101570.31
2022-08-01T23:50:01.429Z,101588.94
2022-08-01T23:52:29.996Z,101574.88
2022-08-01T23:54:59.987Z,101579.53
2022-08-01T23:57:41.617Z,101574.34
